sensor_id;sensor_type;location;lat;lon;timestamp;pressure;altitude;pressure_sealevel;temperature;humidity
10348;BME280;5220;43.192;23.284;2023-04-10T00:00:00;97235.69;;;9.59;100.00
10348;BME280;5220;43.192;23.284;2023-04-10T00:02:27;97232.16;;;9.60;100.00
10348;BME280;5220;43.192;23.284;2023-04-10T00:04:53;97228.63;;;9.61;100.00
10348;BME280;5220;43.192;23.284;2023-04-10T00:07:21;97231.97;;;9.63;100.00
10348;BME280;5220;43.192;23.284;2023-04-10T00:09:48;97232.88;;;9.62;100.00
10348;BME280;5220;43.192;23.284;2023-04-10T00:12:15;97238.06;;;9.62;100.00
10348;BME280;5220;43.192;23.284;2023-04-10T00:14:42;97224.28;;;9.62;100.00
10348;BME280;5220;43.192;23.284;2023-04-10T00:17:08;97220.66;;;9.64;100.00
10348;BME280;5220;43.192;23.284;2023-04-10T00:19:35;97222.50;;;9.62;100.00
10348;BME280;5220;43.192;23.284;2023-04-10T00:22:03;97218.13;;;9.63;100.00
10348;BME280;5220;43.192;23.284;2023-04-10T00:24:31;97219.16;;;9.60;100.00
10348;BME280;5220;43.192;23.284;2023-04-10T00:26:58;97225.09;;;9.62;100.00
10348;BME280;5220;43.192;23.284;2023-04-10T00:29:25;97211.19;;;9.63;100.00
10348;BME280;5220;43.192;23.284;2023-04-10T00:31:52;97217.22;;;9.64;100.00
10348;BME280;5220;43.192;23.284;2023-04-10T00:34:19;97212.75;;;9.66;100.00
10348;BME280;5220;43.192;23.284;2023-04-10T00:36:45;97215.25;;;9.67;100.00
10348;BME280;5220;43.192;23.284;2023-04-10T00:39:12;97208.78;;;9.60;100.00
10348;BME280;5220;43.192;23.284;2023-04-10T00:41:41;97212.84;;;9.64;100.00
10348;BME280;5220;43.192;23.284;2023-04-10T00:44:07;97216.16;;;9.66;100.00
10348;BME280;5220;43.192;23.284;2023-04-10T00:46:36;97213.56;;;9.66;100.00
10348;BME280;5220;43.192;23.284;2023-04-10T00:49:03;97217.84;;;9.67;100.00
10348;BME280;5220;43.192;23.284;2023-04-10T00:51:30;97213.50;;;9.68;100.00
10348;BME280;5220;43.192;23.284;2023-04-10T00:53:59;97208.28;;;9.68;100.00
10348;BME280;5220;43.192;23.284;2023-04-10T00:56:26;97207.47;;;9.67;100.00
10348;BME280;5220;43.192;23.284;2023-04-10T00:58:55;97211.81;;;9.67;100.00
10348;BME280;5220;43.192;23.284;2023-04-10T01:01:22;97208.28;;;9.68;100.00
10348;BME280;5220;43.192;23.284;2023-04-10T01:03:49;97201.31;;;9.68;100.00
10348;BME280;5220;43.192;23.284;2023-04-10T01:06:29;97206.63;;;9.67;100.00
10348;BME280;5220;43.192;23.284;2023-04-10T01:09:13;97201.50;;;9.65;100.00
10348;BME280;5220;43.192;23.284;2023-04-10T01:11:48;97210.13;;;9.66;100.00
10348;BME280;5220;43.192;23.284;2023-04-10T01:14:26;97199.66;;;9.67;100.00
10348;BME280;5220;43.192;23.284;2023-04-10T01:17:00;97197.75;;;9.57;100.00
10348;BME280;5220;43.192;23.284;2023-04-10T01:19:41;97193.28;;;9.59;100.00
10348;BME280;5220;43.192;23.284;2023-04-10T01:22:15;97194.13;;;9.59;100.00
10348;BME280;5220;43.192;23.284;2023-04-10T01:24:55;97191.63;;;9.58;100.00
10348;BME280;5220;43.192;23.284;2023-04-10T01:27:39;97185.41;;;9.60;100.00
10348;BME280;5220;43.192;23.284;2023-04-10T01:30:15;97185.59;;;9.57;100.00
10348;BME280;5220;43.192;23.284;2023-04-10T01:32:43;97189.03;;;9.58;100.00
10348;BME280;5220;43.192;23.284;2023-04-10T01:35:11;97195.28;;;9.55;100.00
10348;BME280;5220;43.192;23.284;2023-04-10T01:37:41;97189.31;;;9.53;100.00
10348;BME280;5220;43.192;23.284;2023-04-10T01:40:10;97188.41;;;9.54;100.00
10348;BME280;5220;43.192;23.284;2023-04-10T01:42:43;97196.91;;;9.56;100.00
10348;BME280;5220;43.192;23.284;2023-04-10T01:45:14;97189.13;;;9.56;100.00
10348;BME280;5220;43.192;23.284;2023-04-10T01:47:43;97192.47;;;9.58;100.00
10348;BME280;5220;43.192;23.284;2023-04-10T01:50:11;97194.13;;;9.59;100.00
10348;BME280;5220;43.192;23.284;2023-04-10T01:52:39;97199.31;;;9.59;100.00
10348;BME280;5220;43.192;23.284;2023-04-10T01:55:07;97194.97;;;9.60;100.00
10348;BME280;5220;43.192;23.284;2023-04-10T01:57:34;97192.28;;;9.61;100.00
10348;BME280;5220;43.192;23.284;2023-04-10T02:00:01;97180.22;;;9.60;100.00
10348;BME280;5220;43.192;23.284;2023-04-10T02:02:31;97186.34;;;9.59;100.00
10348;BME280;5220;43.192;23.284;2023-04-10T02:04:57;97184.56;;;9.60;100.00
10348;BME280;5220;43.192;23.284;2023-04-10T02:07:30;97182.72;;;9.62;100.00
10348;BME280;5220;43.192;23.284;2023-04-10T02:10:05;97184.56;;;9.60;100.00
10348;BME280;5220;43.192;23.284;2023-04-10T02:12:38;97188.00;;;9.60;100.00
10348;BME280;5220;43.192;23.284;2023-04-10T02:15:08;97180.28;;;9.59;100.00
10348;BME280;5220;43.192;23.284;2023-04-10T02:17:38;97176.06;;;9.58;100.00
10348;BME280;5220;43.192;23.284;2023-04-10T02:20:07;97176.91;;;9.58;100.00
10348;BME280;5220;43.192;23.284;2023-04-10T02:22:35;97180.28;;;9.59;100.00
10348;BME280;5220;43.192;23.284;2023-04-10T02:25:03;97162.97;;;9.59;100.00
10348;BME280;5220;43.192;23.284;2023-04-10T02:27:33;97174.09;;;9.61;100.00
10348;BME280;5220;43.192;23.284;2023-04-10T02:30:01;97165.56;;;9.59;100.00
10348;BME280;5220;43.192;23.284;2023-04-10T02:32:28;97166.31;;;9.61;100.00
10348;BME280;5220;43.192;23.284;2023-04-10T02:34:56;97166.31;;;9.61;100.00
10348;BME280;5220;43.192;23.284;2023-04-10T02:37:23;97158.72;;;9.58;100.00
10348;BME280;5220;43.192;23.284;2023-04-10T02:39:50;97162.31;;;9.56;100.00
10348;BME280;5220;43.192;23.284;2023-04-10T02:42:17;97165.97;;;9.53;100.00
10348;BME280;5220;43.192;23.284;2023-04-10T02:44:44;97161.09;;;9.49;100.00
10348;BME280;5220;43.192;23.284;2023-04-10T02:47:10;97148.81;;;9.51;100.00
10348;BME280;5220;43.192;23.284;2023-04-10T02:49:37;97147.06;;;9.51;100.00
10348;BME280;5220;43.192;23.284;2023-04-10T02:52:05;97150.56;;;9.50;100.00
10348;BME280;5220;43.192;23.284;2023-04-10T02:54:32;97160.03;;;9.51;100.00
10348;BME280;5220;43.192;23.284;2023-04-10T02:56:59;97142.78;;;9.50;100.00
10348;BME280;5220;43.192;23.284;2023-04-10T02:59:26;97149.66;;;9.51;100.00
10348;BME280;5220;43.192;23.284;2023-04-10T03:01:53;97154.94;;;9.50;100.00
10348;BME280;5220;43.192;23.284;2023-04-10T03:04:20;97144.53;;;9.50;100.00
10348;BME280;5220;43.192;23.284;2023-04-10T03:06:46;97146.75;;;9.43;100.00
10348;BME280;5220;43.192;23.284;2023-04-10T03:09:14;97145.78;;;9.44;100.00
10348;BME280;5220;43.192;23.284;2023-04-10T03:11:41;97144.88;;;9.45;100.00
10348;BME280;5220;43.192;23.284;2023-04-10T03:14:08;97147.53;;;9.44;100.00
10348;BME280;5220;43.192;23.284;2023-04-10T03:16:35;97150.97;;;9.44;100.00
10348;BME280;5220;43.192;23.284;2023-04-10T03:19:01;97154.91;;;9.37;100.00
10348;BME280;5220;43.192;23.284;2023-04-10T03:21:28;97154.06;;;9.24;100.00
10348;BME280;5220;43.192;23.284;2023-04-10T03:23:55;97157.66;;;9.22;100.00
10348;BME280;5220;43.192;23.284;2023-04-10T03:26:23;97159.25;;;9.24;100.00
10348;BME280;5220;43.192;23.284;2023-04-10T03:28:50;97155.69;;;9.25;100.00
10348;BME280;5220;43.192;23.284;2023-04-10T03:31:16;97154.78;;;9.26;100.00
10348;BME280;5220;43.192;23.284;2023-04-10T03:33:43;97153.94;;;9.26;100.00
10348;BME280;5220;43.192;23.284;2023-04-10T03:36:10;97156.09;;;9.19;100.00
10348;BME280;5220;43.192;23.284;2023-04-10T03:38:37;97162.22;;;9.18;100.00
10348;BME280;5220;43.192;23.284;2023-04-10T03:41:04;97160.56;;;9.17;100.00
10348;BME280;5220;43.192;23.284;2023-04-10T03:43:32;97165.03;;;9.15;100.00
10348;BME280;5220;43.192;23.284;2023-04-10T03:45:59;97167.63;;;9.15;100.00
10348;BME280;5220;43.192;23.284;2023-04-10T03:48:26;97170.09;;;9.16;100.00
10348;BME280;5220;43.192;23.284;2023-04-10T03:50:54;97162.63;;;9.12;100.00
10348;BME280;5220;43.192;23.284;2023-04-10T03:53:21;97167.38;;;9.05;100.00
10348;BME280;5220;43.192;23.284;2023-04-10T03:55:48;97166.22;;;9.09;100.00
10348;BME280;5220;43.192;23.284;2023-04-10T03:58:15;97178.19;;;9.12;100.00
10348;BME280;5220;43.192;23.284;2023-04-10T04:00:43;97173.19;;;9.09;100.00
10348;BME280;5220;43.192;23.284;2023-04-10T04:03:10;97169.66;;;9.10;100.00
10348;BME280;5220;43.192;23.284;2023-04-10T04:05:36;97181.72;;;9.11;100.00
10348;BME280;5220;43.192;23.284;2023-04-10T04:08:03;97181.72;;;9.11;100.00
10348;BME280;5220;43.192;23.284;2023-04-10T04:10:31;97181.59;;;9.12;100.00
10348;BME280;5220;43.192;23.284;2023-04-10T04:12:57;97176.53;;;9.11;100.00
10348;BME280;5220;43.192;23.284;2023-04-10T04:15:24;97181.59;;;9.12;100.00
10348;BME280;5220;43.192;23.284;2023-04-10T04:17:52;97184.00;;;9.15;100.00
10348;BME280;5220;43.192;23.284;2023-04-10T04:20:19;97183.81;;;9.18;100.00
10348;BME280;5220;43.192;23.284;2023-04-10T04:22:46;97179.44;;;9.19;100.00
10348;BME280;5220;43.192;23.284;2023-04-10T04:25:12;97181.41;;;9.15;100.00
10348;BME280;5220;43.192;23.284;2023-04-10T04:27:39;97183.91;;;9.17;100.00
10348;BME280;5220;43.192;23.284;2023-04-10T04:30:07;97181.50;;;9.14;100.00
10348;BME280;5220;43.192;23.284;2023-04-10T04:32:33;97189.50;;;9.11;100.00
10348;BME280;5220;43.192;23.284;2023-04-10T04:35:01;97185.22;;;9.10;100.00
10348;BME280;5220;43.192;23.284;2023-04-10T04:37:28;97191.97;;;9.12;100.00
10348;BME280;5220;43.192;23.284;2023-04-10T04:39:55;97185.78;;;9.15;100.00
10348;BME280;5220;43.192;23.284;2023-04-10T04:42:22;97188.19;;;9.18;100.00
10348;BME280;5220;43.192;23.284;2023-04-10T04:44:48;97191.50;;;9.20;100.00
10348;BME280;5220;43.192;23.284;2023-04-10T04:47:15;97194.63;;;9.25;100.00
10348;BME280;5220;43.192;23.284;2023-04-10T04:49:42;97190.06;;;9.29;100.00
10348;BME280;5220;43.192;23.284;2023-04-10T04:52:10;97196.75;;;9.33;100.00
10348;BME280;5220;43.192;23.284;2023-04-10T04:54:37;97198.13;;;9.38;100.00
10348;BME280;5220;43.192;23.284;2023-04-10T04:57:03;97197.63;;;9.46;100.00
10348;BME280;5220;43.192;23.284;2023-04-10T04:59:30;97193.88;;;9.50;100.00
10348;BME280;5220;43.192;23.284;2023-04-10T05:01:57;97199.50;;;9.56;100.00
10348;BME280;5220;43.192;23.284;2023-04-10T05:04:23;97201.72;;;9.62;100.00
10348;BME280;5220;43.192;23.284;2023-04-10T05:06:50;97204.72;;;9.56;100.00
10348;BME280;5220;43.192;23.284;2023-04-10T05:09:18;97209.56;;;9.48;100.00
10348;BME280;5220;43.192;23.284;2023-04-10T05:11:45;97206.63;;;9.67;100.00
10348;BME280;5220;43.192;23.284;2023-04-10T05:14:11;97209.25;;;9.80;100.00
10348;BME280;5220;43.192;23.284;2023-04-10T05:16:38;97212.28;;;9.86;100.00
10348;BME280;5220;43.192;23.284;2023-04-10T05:19:05;97208.13;;;9.96;100.00
10348;BME280;5220;43.192;23.284;2023-04-10T05:21:32;97206.91;;;10.02;100.00
10348;BME280;5220;43.192;23.284;2023-04-10T05:23:59;97209.34;;;9.91;100.00
10348;BME280;5220;43.192;23.284;2023-04-10T05:26:27;97213.53;;;10.06;100.00
10348;BME280;5220;43.192;23.284;2023-04-10T05:28:54;97209.44;;;10.16;100.00
10348;BME280;5220;43.192;23.284;2023-04-10T05:31:21;97219.31;;;10.23;100.00
10348;BME280;5220;43.192;23.284;2023-04-10T05:33:47;97223.16;;;10.31;100.00
10348;BME280;5220;43.192;23.284;2023-04-10T05:36:14;97221.81;;;10.38;100.00
10348;BME280;5220;43.192;23.284;2023-04-10T05:38:42;97222.94;;;10.46;100.00
10348;BME280;5220;43.192;23.284;2023-04-10T05:41:09;97218.28;;;10.51;100.00
10348;BME280;5220;43.192;23.284;2023-04-10T05:43:37;97224.63;;;10.60;100.00
10348;BME280;5220;43.192;23.284;2023-04-10T05:46:04;97221.72;;;10.64;100.00
10348;BME280;5220;43.192;23.284;2023-04-10T05:48:31;97227.41;;;10.82;100.00
10348;BME280;5220;43.192;23.284;2023-04-10T05:50:57;97225.84;;;10.79;100.00
10348;BME280;5220;43.192;23.284;2023-04-10T05:53:28;97230.72;;;10.84;100.00
10348;BME280;5220;43.192;23.284;2023-04-10T05:55:56;97227.59;;;10.92;100.00
10348;BME280;5220;43.192;23.284;2023-04-10T05:58:23;97218.53;;;10.97;100.00
10348;BME280;5220;43.192;23.284;2023-04-10T06:00:51;97230.03;;;11.06;100.00
10348;BME280;5220;43.192;23.284;2023-04-10T06:03:18;97224.41;;;11.12;100.00
10348;BME280;5220;43.192;23.284;2023-04-10T06:05:45;97236.19;;;11.17;100.00
10348;BME280;5220;43.192;23.284;2023-04-10T06:08:12;97227.31;;;11.20;100.00
10348;BME280;5220;43.192;23.284;2023-04-10T06:10:40;97231.16;;;11.27;100.00
10348;BME280;5220;43.192;23.284;2023-04-10T06:13:06;97230.38;;;11.38;100.00
10348;BME280;5220;43.192;23.284;2023-04-10T06:15:33;97224.22;;;11.39;100.00
10348;BME280;5220;43.192;23.284;2023-04-10T06:18:01;97221.66;;;11.50;100.00
10348;BME280;5220;43.192;23.284;2023-04-10T06:20:28;97227.75;;;11.61;100.00
10348;BME280;5220;43.192;23.284;2023-04-10T06:22:55;97221.94;;;11.70;100.00
10348;BME280;5220;43.192;23.284;2023-04-10T06:25:21;97225.25;;;11.72;100.00
10348;BME280;5220;43.192;23.284;2023-04-10T06:27:48;97218.91;;;11.88;100.00
10348;BME280;5220;43.192;23.284;2023-04-10T06:30:15;97217.28;;;11.98;100.00
10348;BME280;5220;43.192;23.284;2023-04-10T06:32:41;97219.91;;;12.09;100.00
10348;BME280;5220;43.192;23.284;2023-04-10T06:35:10;97221.44;;;12.11;100.00
10348;BME280;5220;43.192;23.284;2023-04-10T06:37:36;97225.19;;;12.20;100.00
10348;BME280;5220;43.192;23.284;2023-04-10T06:40:05;97222.78;;;12.17;100.00
10348;BME280;5220;43.192;23.284;2023-04-10T06:42:32;97225.88;;;12.22;100.00
10348;BME280;5220;43.192;23.284;2023-04-10T06:44:59;97234.63;;;12.10;100.00
10348;BME280;5220;43.192;23.284;2023-04-10T06:47:26;97231.47;;;11.94;100.00
10348;BME280;5220;43.192;23.284;2023-04-10T06:49:52;97234.03;;;12.17;100.00
10348;BME280;5220;43.192;23.284;2023-04-10T06:52:21;97241.97;;;12.05;100.00
10348;BME280;5220;43.192;23.284;2023-04-10T06:54:47;97238.16;;;11.98;100.00
10348;BME280;5220;43.192;23.284;2023-04-10T06:57:14;97238.00;;;11.99;100.00
10348;BME280;5220;43.192;23.284;2023-04-10T06:59:41;97242.47;;;12.21;100.00
10348;BME280;5220;43.192;23.284;2023-04-10T07:02:08;97236.69;;;12.28;100.00
10348;BME280;5220;43.192;23.284;2023-04-10T07:04:34;97241.19;;;12.26;100.00
10348;BME280;5220;43.192;23.284;2023-04-10T07:07:01;97231.69;;;12.25;100.00
10348;BME280;5220;43.192;23.284;2023-04-10T07:09:29;97245.44;;;12.27;100.00
10348;BME280;5220;43.192;23.284;2023-04-10T07:11:56;97242.59;;;12.30;100.00
10348;BME280;5220;43.192;23.284;2023-04-10T07:14:23;97246.66;;;12.34;100.00
10348;BME280;5220;43.192;23.284;2023-04-10T07:16:49;97238.06;;;11.75;100.00
10348;BME280;5220;43.192;23.284;2023-04-10T07:19:18;97241.59;;;11.98;100.00
10348;BME280;5220;43.192;23.284;2023-04-10T07:21:45;97246.38;;;12.15;100.00
10348;BME280;5220;43.192;23.284;2023-04-10T07:24:14;97258.41;;;12.05;100.00
10348;BME280;5220;43.192;23.284;2023-04-10T07:26:42;97252.84;;;11.75;100.00
10348;BME280;5220;43.192;23.284;2023-04-10T07:29:09;97254.72;;;11.97;100.00
10348;BME280;5220;43.192;23.284;2023-04-10T07:31:36;97248.28;;;11.66;100.00
10348;BME280;5220;43.192;23.284;2023-04-10T07:34:04;97253.06;;;11.96;100.00
10348;BME280;5220;43.192;23.284;2023-04-10T07:36:31;97258.03;;;11.99;100.00
10348;BME280;5220;43.192;23.284;2023-04-10T07:38:58;97251.88;;;11.89;100.00
10348;BME280;5220;43.192;23.284;2023-04-10T07:41:25;97255.72;;;12.07;100.00
10348;BME280;5220;43.192;23.284;2023-04-10T07:43:53;97245.53;;;12.15;100.00
10348;BME280;5220;43.192;23.284;2023-04-10T07:46:20;97255.50;;;12.21;100.00
10348;BME280;5220;43.192;23.284;2023-04-10T07:48:47;97251.53;;;12.50;100.00
10348;BME280;5220;43.192;23.284;2023-04-10T07:51:14;97247.63;;;12.45;100.00
10348;BME280;5220;43.192;23.284;2023-04-10T07:53:41;97250.28;;;12.67;100.00
10348;BME280;5220;43.192;23.284;2023-04-10T07:56:14;97248.09;;;12.38;100.00
10348;BME280;5220;43.192;23.284;2023-04-10T07:58:41;97244.66;;;12.38;100.00
10348;BME280;5220;43.192;23.284;2023-04-10T08:01:09;97248.34;;;12.47;100.00
10348;BME280;5220;43.192;23.284;2023-04-10T08:03:37;97247.63;;;12.45;100.00
10348;BME280;5220;43.192;23.284;2023-04-10T08:06:05;97254.84;;;12.52;100.00
10348;BME280;5220;43.192;23.284;2023-04-10T08:08:34;97249.75;;;12.39;100.00
10348;BME280;5220;43.192;23.284;2023-04-10T08:11:01;97250.19;;;12.33;100.00
10348;BME280;5220;43.192;23.284;2023-04-10T08:13:27;97255.78;;;12.40;100.00
10348;BME280;5220;43.192;23.284;2023-04-10T08:15:54;97252.56;;;12.25;100.00
10348;BME280;5220;43.192;23.284;2023-04-10T08:18:22;97259.16;;;12.07;100.00
10348;BME280;5220;43.192;23.284;2023-04-10T08:20:49;97252.47;;;11.92;100.00
10348;BME280;5220;43.192;23.284;2023-04-10T08:23:15;97260.16;;;11.94;100.00
10348;BME280;5220;43.192;23.284;2023-04-10T08:25:42;97262.53;;;11.97;100.00
10348;BME280;5220;43.192;23.284;2023-04-10T08:28:09;97260.72;;;12.21;100.00
10348;BME280;5220;43.192;23.284;2023-04-10T08:30:35;97261.91;;;12.17;100.00
10348;BME280;5220;43.192;23.284;2023-04-10T08:33:02;97264.69;;;12.37;100.00
10348;BME280;5220;43.192;23.284;2023-04-10T08:35:30;97259.94;;;12.31;100.00
10348;BME280;5220;43.192;23.284;2023-04-10T08:37:57;97260.75;;;12.32;100.00
10348;BME280;5220;43.192;23.284;2023-04-10T08:40:23;97250.63;;;12.62;100.00
10348;BME280;5220;43.192;23.284;2023-04-10T08:42:50;97258.16;;;12.32;100.00
10348;BME280;5220;43.192;23.284;2023-04-10T08:45:17;97252.78;;;11.88;100.00
10348;BME280;5220;43.192;23.284;2023-04-10T08:47:44;97246.13;;;11.83;100.00
10348;BME280;5220;43.192;23.284;2023-04-10T08:50:14;97250.50;;;12.07;100.00
10348;BME280;5220;43.192;23.284;2023-04-10T08:52:45;97253.03;;;12.30;100.00
10348;BME280;5220;43.192;23.284;2023-04-10T08:55:12;97255.22;;;12.02;100.00
10348;BME280;5220;43.192;23.284;2023-04-10T08:57:40;97252.94;;;11.97;100.00
10348;BME280;5220;43.192;23.284;2023-04-10T09:00:08;97254.34;;;12.25;100.00
10348;BME280;5220;43.192;23.284;2023-04-10T09:02:37;97256.75;;;12.39;100.00
10348;BME280;5220;43.192;23.284;2023-04-10T09:05:05;97245.88;;;12.56;100.00
10348;BME280;5220;43.192;23.284;2023-04-10T09:07:32;97258.91;;;12.45;100.00
10348;BME280;5220;43.192;23.284;2023-04-10T09:10:01;97249.38;;;12.33;100.00
10348;BME280;5220;43.192;23.284;2023-04-10T09:12:28;97255.13;;;12.60;100.00
10348;BME280;5220;43.192;23.284;2023-04-10T09:14:55;97247.44;;;12.70;100.00
10348;BME280;5220;43.192;23.284;2023-04-10T09:17:23;97248.69;;;12.42;100.00
10348;BME280;5220;43.192;23.284;2023-04-10T09:19:51;97243.00;;;12.48;100.00
10348;BME280;5220;43.192;23.284;2023-04-10T09:22:28;97252.50;;;12.71;100.00
10348;BME280;5220;43.192;23.284;2023-04-10T09:24:55;97235.91;;;12.94;100.00
10348;BME280;5220;43.192;23.284;2023-04-10T09:27:29;97234.00;;;12.97;100.00
10348;BME280;5220;43.192;23.284;2023-04-10T09:29:57;97241.38;;;12.69;100.00
10348;BME280;5220;43.192;23.284;2023-04-10T09:32:44;97236.03;;;12.93;100.00
10348;BME280;5220;43.192;23.284;2023-04-10T09:35:13;97239.94;;;12.87;100.00
10348;BME280;5220;43.192;23.284;2023-04-10T09:37:41;97235.44;;;13.12;100.00
10348;BME280;5220;43.192;23.284;2023-04-10T09:40:19;97245.88;;;12.78;100.00
10348;BME280;5220;43.192;23.284;2023-04-10T09:42:47;97239.56;;;12.59;100.00
10348;BME280;5220;43.192;23.284;2023-04-10T09:45:14;97236.84;;;12.71;100.00
10348;BME280;5220;43.192;23.284;2023-04-10T09:48:00;97236.63;;;12.63;100.00
10348;BME280;5220;43.192;23.284;2023-04-10T09:50:33;97237.22;;;12.67;100.00
10348;BME280;5220;43.192;23.284;2023-04-10T09:53:00;97236.59;;;12.41;100.00
10348;BME280;5220;43.192;23.284;2023-04-10T09:55:27;97235.50;;;12.32;100.00
10348;BME280;5220;43.192;23.284;2023-04-10T09:57:56;97218.22;;;12.65;100.00
10348;BME280;5220;43.192;23.284;2023-04-10T10:00:24;97224.03;;;12.68;100.00
10348;BME280;5220;43.192;23.284;2023-04-10T10:02:52;97217.88;;;12.80;100.00
10348;BME280;5220;43.192;23.284;2023-04-10T10:05:22;97218.09;;;13.00;100.00
10348;BME280;5220;43.192;23.284;2023-04-10T10:07:52;97218.84;;;13.13;100.00
10348;BME280;5220;43.192;23.284;2023-04-10T10:10:20;97217.25;;;13.32;100.00
10348;BME280;5220;43.192;23.284;2023-04-10T10:12:49;97220.66;;;13.44;100.00
10348;BME280;5220;43.192;23.284;2023-04-10T10:15:22;97207.84;;;13.30;100.00
10348;BME280;5220;43.192;23.284;2023-04-10T10:18:01;97215.69;;;13.41;100.00
10348;BME280;5220;43.192;23.284;2023-04-10T10:20:31;97215.41;;;13.55;100.00
10348;BME280;5220;43.192;23.284;2023-04-10T10:23:01;97204.53;;;13.71;100.00
10348;BME280;5220;43.192;23.284;2023-04-10T10:25:29;97207.13;;;13.39;100.00
10348;BME280;5220;43.192;23.284;2023-04-10T10:27:59;97193.50;;;13.35;100.00
10348;BME280;5220;43.192;23.284;2023-04-10T10:30:30;97199.03;;;13.42;100.00
10348;BME280;5220;43.192;23.284;2023-04-10T10:32:57;97195.03;;;13.27;100.00
10348;BME280;5220;43.192;23.284;2023-04-10T10:35:25;97194.06;;;13.39;100.00
10348;BME280;5220;43.192;23.284;2023-04-10T10:37:52;97190.47;;;13.51;100.00
10348;BME280;5220;43.192;23.284;2023-04-10T10:40:23;97190.75;;;14.00;100.00
10348;BME280;5220;43.192;23.284;2023-04-10T10:42:56;97174.25;;;13.89;100.00
10348;BME280;5220;43.192;23.284;2023-04-10T10:45:32;97178.91;;;14.27;100.00
10348;BME280;5220;43.192;23.284;2023-04-10T10:48:00;97172.56;;;14.40;100.00
10348;BME280;5220;43.192;23.284;2023-04-10T10:50:49;97175.38;;;14.07;100.00
10348;BME280;5220;43.192;23.284;2023-04-10T10:53:30;97165.25;;;14.23;100.00
10348;BME280;5220;43.192;23.284;2023-04-10T10:55:57;97169.94;;;13.99;98.19
10348;BME280;5220;43.192;23.284;2023-04-10T10:58:45;97163.72;;;14.21;99.57
10348;BME280;5220;43.192;23.284;2023-04-10T11:01:13;97155.84;;;14.62;97.50
10348;BME280;5220;43.192;23.284;2023-04-10T11:03:41;97157.22;;;14.36;94.33
10348;BME280;5220;43.192;23.284;2023-04-10T11:06:09;97151.59;;;13.58;99.18
10348;BME280;5220;43.192;23.284;2023-04-10T11:08:38;97147.91;;;13.81;100.00
10348;BME280;5220;43.192;23.284;2023-04-10T11:11:10;97143.34;;;13.94;100.00
10348;BME280;5220;43.192;23.284;2023-04-10T11:13:41;97141.38;;;14.17;100.00
10348;BME280;5220;43.192;23.284;2023-04-10T11:16:08;97136.69;;;13.90;100.00
10348;BME280;5220;43.192;23.284;2023-04-10T11:19:02;97132.16;;;14.13;100.00
10348;BME280;5220;43.192;23.284;2023-04-10T11:21:30;97135.03;;;13.89;100.00
10348;BME280;5220;43.192;23.284;2023-04-10T11:24:04;97138.16;;;14.04;100.00
10348;BME280;5220;43.192;23.284;2023-04-10T11:26:38;97126.66;;;13.95;100.00
10348;BME280;5220;43.192;23.284;2023-04-10T11:29:31;97114.59;;;14.24;100.00
10348;BME280;5220;43.192;23.284;2023-04-10T11:31:57;97115.31;;;14.57;100.00
10348;BME280;5220;43.192;23.284;2023-04-10T11:34:26;97112.03;;;14.34;99.88
10348;BME280;5220;43.192;23.284;2023-04-10T11:36:53;97115.88;;;14.60;100.00
10348;BME280;5220;43.192;23.284;2023-04-10T11:39:20;97113.41;;;14.68;98.58
10348;BME280;5220;43.192;23.284;2023-04-10T11:41:48;97105.41;;;14.70;91.98
10348;BME280;5220;43.192;23.284;2023-04-10T11:44:16;97110.47;;;14.52;95.36
10348;BME280;5220;43.192;23.284;2023-04-10T11:46:46;97105.41;;;14.60;85.29
10348;BME280;5220;43.192;23.284;2023-04-10T11:49:17;97103.72;;;14.49;95.77
10348;BME280;5220;43.192;23.284;2023-04-10T11:51:47;97107.22;;;14.39;98.68
10348;BME280;5220;43.192;23.284;2023-04-10T11:54:15;97104.53;;;14.50;93.86
10348;BME280;5220;43.192;23.284;2023-04-10T11:56:43;97105.94;;;14.64;90.48
10348;BME280;5220;43.192;23.284;2023-04-10T11:59:10;97093.31;;;14.69;90.96
10348;BME280;5220;43.192;23.284;2023-04-10T12:01:39;97091.41;;;14.90;90.52
10348;BME280;5220;43.192;23.284;2023-04-10T12:04:12;97078.50;;;15.27;94.25
10348;BME280;5220;43.192;23.284;2023-04-10T12:06:44;97083.72;;;15.07;96.39
10348;BME280;5220;43.192;23.284;2023-04-10T12:09:12;97075.75;;;15.19;96.20
10348;BME280;5220;43.192;23.284;2023-04-10T12:11:47;97081.97;;;14.59;98.15
10348;BME280;5220;43.192;23.284;2023-04-10T12:14:15;97073.25;;;14.48;100.00
10348;BME280;5220;43.192;23.284;2023-04-10T12:16:43;97071.03;;;14.44;99.61
10348;BME280;5220;43.192;23.284;2023-04-10T12:19:10;97064.97;;;14.13;92.02
10348;BME280;5220;43.192;23.284;2023-04-10T12:21:39;97063.34;;;14.22;93.15
10348;BME280;5220;43.192;23.284;2023-04-10T12:24:08;97056.97;;;14.45;94.34
10348;BME280;5220;43.192;23.284;2023-04-10T12:26:35;97051.44;;;14.38;88.18
10348;BME280;5220;43.192;23.284;2023-04-10T12:29:02;97045.16;;;14.50;92.99
10348;BME280;5220;43.192;23.284;2023-04-10T12:31:32;97041.50;;;14.72;87.30
10348;BME280;5220;43.192;23.284;2023-04-10T12:33:59;97044.28;;;14.99;82.78
10348;BME280;5220;43.192;23.284;2023-04-10T12:36:27;97037.78;;;15.13;65.33
10348;BME280;5220;43.192;23.284;2023-04-10T12:38:55;97030.88;;;14.83;68.62
10348;BME280;5220;43.192;23.284;2023-04-10T12:41:24;97034.84;;;14.59;83.84
10348;BME280;5220;43.192;23.284;2023-04-10T12:43:52;97023.63;;;14.37;87.98
10348;BME280;5220;43.192;23.284;2023-04-10T12:46:24;97033.97;;;14.48;89.01
10348;BME280;5220;43.192;23.284;2023-04-10T12:48:50;97021.88;;;14.17;89.23
10348;BME280;5220;43.192;23.284;2023-04-10T12:51:17;97034.25;;;14.15;92.81
10348;BME280;5220;43.192;23.284;2023-04-10T12:53:44;97040.34;;;13.95;97.89
10348;BME280;5220;43.192;23.284;2023-04-10T12:56:12;97036.69;;;13.97;99.96
10348;BME280;5220;43.192;23.284;2023-04-10T12:58:40;97042.25;;;13.42;100.00
10348;BME280;5220;43.192;23.284;2023-04-10T13:01:08;97046.03;;;13.28;100.00